sensor_id;sensor_type;location;lat;lon;timestamp;P1;durP1;ratioP1;P2;durP2;ratioP2
58366;SDS011;57745;42.524;12.052;2023-06-14T00:00:06;12.90;;;7.30;;
58366;SDS011;57745;42.524;12.052;2023-06-14T00:02:33;7.47;;;6.20;;
58366;SDS011;57745;42.524;12.052;2023-06-14T00:04:58;8.05;;;6.78;;
58366;SDS011;57745;42.524;12.052;2023-06-14T00:07:33;8.93;;;6.82;;
58366;SDS011;57745;42.524;12.052;2023-06-14T00:09:59;7.80;;;6.88;;
58366;SDS011;57745;42.524;12.052;2023-06-14T00:12:25;8.45;;;6.93;;
58366;SDS011;57745;42.524;12.052;2023-06-14T00:14:50;10.38;;;7.45;;
58366;SDS011;57745;42.524;12.052;2023-06-14T00:17:16;8.60;;;6.38;;
58366;SDS011;57745;42.524;12.052;2023-06-14T00:19:42;7.57;;;6.78;;
58366;SDS011;57745;42.524;12.052;2023-06-14T00:22:07;11.70;;;7.10;;
58366;SDS011;57745;42.524;12.052;2023-06-14T00:24:32;9.82;;;6.68;;
58366;SDS011;57745;42.524;12.052;2023-06-14T00:26:58;7.80;;;6.38;;
58366;SDS011;57745;42.524;12.052;2023-06-14T00:29:23;7.50;;;6.35;;
58366;SDS011;57745;42.524;12.052;2023-06-14T00:31:49;8.20;;;6.35;;
58366;SDS011;57745;42.524;12.052;2023-06-14T00:34:14;8.25;;;6.65;;
58366;SDS011;57745;42.524;12.052;2023-06-14T00:36:40;7.93;;;6.70;;
58366;SDS011;57745;42.524;12.052;2023-06-14T00:39:05;9.38;;;7.05;;
58366;SDS011;57745;42.524;12.052;2023-06-14T00:41:30;10.05;;;7.18;;
58366;SDS011;57745;42.524;12.052;2023-06-14T00:43:56;8.05;;;6.72;;
58366;SDS011;57745;42.524;12.052;2023-06-14T00:46:21;7.88;;;6.50;;
58366;SDS011;57745;42.524;12.052;2023-06-14T00:48:47;10.75;;;7.10;;
58366;SDS011;57745;42.524;12.052;2023-06-14T00:51:13;7.90;;;6.85;;
58366;SDS011;57745;42.524;12.052;2023-06-14T00:53:39;8.65;;;6.95;;
58366;SDS011;57745;42.524;12.052;2023-06-14T00:56:05;9.25;;;6.88;;
58366;SDS011;57745;42.524;12.052;2023-06-14T00:58:32;7.82;;;6.90;;
58366;SDS011;57745;42.524;12.052;2023-06-14T01:00:57;9.23;;;6.60;;
58366;SDS011;57745;42.524;12.052;2023-06-14T01:03:23;7.93;;;6.68;;
58366;SDS011;57745;42.524;12.052;2023-06-14T01:05:54;7.85;;;6.80;;
58366;SDS011;57745;42.524;12.052;2023-06-14T01:08:31;6.95;;;6.20;;
58366;SDS011;57745;42.524;12.052;2023-06-14T01:11:05;8.27;;;6.50;;
58366;SDS011;57745;42.524;12.052;2023-06-14T01:13:38;6.95;;;6.00;;
58366;SDS011;57745;42.524;12.052;2023-06-14T01:16:07;5.97;;;5.18;;
58366;SDS011;57745;42.524;12.052;2023-06-14T01:18:33;6.20;;;5.10;;
58366;SDS011;57745;42.524;12.052;2023-06-14T01:20:59;6.15;;;5.47;;
58366;SDS011;57745;42.524;12.052;2023-06-14T01:23:31;7.28;;;5.97;;
58366;SDS011;57745;42.524;12.052;2023-06-14T01:26:00;6.00;;;5.22;;
58366;SDS011;57745;42.524;12.052;2023-06-14T01:28:28;7.28;;;6.00;;
58366;SDS011;57745;42.524;12.052;2023-06-14T01:30:59;6.03;;;5.43;;
58366;SDS011;57745;42.524;12.052;2023-06-14T01:33:29;7.05;;;6.13;;
58366;SDS011;57745;42.524;12.052;2023-06-14T01:35:56;8.63;;;5.70;;
58366;SDS011;57745;42.524;12.052;2023-06-14T01:38:22;6.60;;;5.32;;
58366;SDS011;57745;42.524;12.052;2023-06-14T01:40:50;6.63;;;5.18;;
58366;SDS011;57745;42.524;12.052;2023-06-14T01:43:18;5.68;;;5.07;;
58366;SDS011;57745;42.524;12.052;2023-06-14T01:45:45;6.50;;;5.45;;
58366;SDS011;57745;42.524;12.052;2023-06-14T01:48:12;6.95;;;4.97;;
58366;SDS011;57745;42.524;12.052;2023-06-14T01:50:39;6.18;;;5.10;;
58366;SDS011;57745;42.524;12.052;2023-06-14T01:53:08;6.05;;;4.72;;
58366;SDS011;57745;42.524;12.052;2023-06-14T01:55:35;6.72;;;4.70;;
58366;SDS011;57745;42.524;12.052;2023-06-14T01:58:02;8.65;;;4.40;;
58366;SDS011;57745;42.524;12.052;2023-06-14T02:00:28;4.53;;;3.67;;
58366;SDS011;57745;42.524;12.052;2023-06-14T02:02:54;3.80;;;3.22;;
58366;SDS011;57745;42.524;12.052;2023-06-14T02:05:20;3.35;;;2.90;;
58366;SDS011;57745;42.524;12.052;2023-06-14T02:07:46;3.17;;;2.88;;
58366;SDS011;57745;42.524;12.052;2023-06-14T02:10:11;3.75;;;3.28;;
58366;SDS011;57745;42.524;12.052;2023-06-14T02:12:37;4.55;;;3.50;;
58366;SDS011;57745;42.524;12.052;2023-06-14T02:15:02;4.22;;;3.80;;
58366;SDS011;57745;42.524;12.052;2023-06-14T02:17:29;5.03;;;3.80;;
58366;SDS011;57745;42.524;12.052;2023-06-14T02:19:54;5.03;;;4.05;;
58366;SDS011;57745;42.524;12.052;2023-06-14T02:22:22;5.03;;;3.97;;
58366;SDS011;57745;42.524;12.052;2023-06-14T02:24:48;4.13;;;3.70;;
58366;SDS011;57745;42.524;12.052;2023-06-14T02:27:13;4.45;;;3.50;;
58366;SDS011;57745;42.524;12.052;2023-06-14T02:29:39;4.10;;;3.70;;
58366;SDS011;57745;42.524;12.052;2023-06-14T02:32:04;6.88;;;3.35;;
58366;SDS011;57745;42.524;12.052;2023-06-14T02:34:32;5.40;;;3.67;;
58366;SDS011;57745;42.524;12.052;2023-06-14T02:36:58;7.82;;;3.38;;
58366;SDS011;57745;42.524;12.052;2023-06-14T02:39:24;4.57;;;3.83;;
58366;SDS011;57745;42.524;12.052;2023-06-14T02:41:50;5.68;;;3.40;;
58366;SDS011;57745;42.524;12.052;2023-06-14T02:44:17;3.78;;;3.38;;
58366;SDS011;57745;42.524;12.052;2023-06-14T02:46:43;4.63;;;3.40;;
58366;SDS011;57745;42.524;12.052;2023-06-14T02:49:09;3.85;;;3.15;;
58366;SDS011;57745;42.524;12.052;2023-06-14T02:51:35;5.03;;;4.00;;
58366;SDS011;57745;42.524;12.052;2023-06-14T02:54:00;5.15;;;3.45;;
58366;SDS011;57745;42.524;12.052;2023-06-14T02:56:26;5.18;;;3.67;;
58366;SDS011;57745;42.524;12.052;2023-06-14T02:58:52;4.18;;;3.70;;
58366;SDS011;57745;42.524;12.052;2023-06-14T03:01:18;4.70;;;3.75;;
58366;SDS011;57745;42.524;12.052;2023-06-14T03:03:45;6.07;;;4.32;;
58366;SDS011;57745;42.524;12.052;2023-06-14T03:06:11;5.32;;;3.90;;
58366;SDS011;57745;42.524;12.052;2023-06-14T03:08:39;6.25;;;4.50;;
58366;SDS011;57745;42.524;12.052;2023-06-14T03:11:07;4.85;;;4.13;;
58366;SDS011;57745;42.524;12.052;2023-06-14T03:13:36;4.38;;;3.88;;
58366;SDS011;57745;42.524;12.052;2023-06-14T03:16:02;8.15;;;3.70;;
58366;SDS011;57745;42.524;12.052;2023-06-14T03:18:29;4.80;;;3.80;;
58366;SDS011;57745;42.524;12.052;2023-06-14T03:20:56;4.35;;;3.80;;
58366;SDS011;57745;42.524;12.052;2023-06-14T03:23:23;5.75;;;3.85;;
58366;SDS011;57745;42.524;12.052;2023-06-14T03:25:50;5.00;;;3.65;;
58366;SDS011;57745;42.524;12.052;2023-06-14T03:28:16;5.10;;;3.33;;
58366;SDS011;57745;42.524;12.052;2023-06-14T03:30:42;3.97;;;3.58;;
58366;SDS011;57745;42.524;12.052;2023-06-14T03:33:07;4.57;;;3.30;;
58366;SDS011;57745;42.524;12.052;2023-06-14T03:35:33;4.07;;;3.38;;
58366;SDS011;57745;42.524;12.052;2023-06-14T03:37:59;5.07;;;3.83;;
58366;SDS011;57745;42.524;12.052;2023-06-14T03:40:24;5.40;;;3.35;;
58366;SDS011;57745;42.524;12.052;2023-06-14T03:42:52;4.95;;;3.25;;
58366;SDS011;57745;42.524;12.052;2023-06-14T03:45:18;4.10;;;2.80;;
58366;SDS011;57745;42.524;12.052;2023-06-14T03:47:44;5.18;;;3.30;;
58366;SDS011;57745;42.524;12.052;2023-06-14T03:50:10;3.55;;;2.70;;
58366;SDS011;57745;42.524;12.052;2023-06-14T03:52:36;5.00;;;2.40;;
58366;SDS011;57745;42.524;12.052;2023-06-14T03:55:01;3.22;;;2.22;;
58366;SDS011;57745;42.524;12.052;2023-06-14T03:57:27;2.97;;;2.20;;
58366;SDS011;57745;42.524;12.052;2023-06-14T03:59:54;4.25;;;2.35;;
58366;SDS011;57745;42.524;12.052;2023-06-14T04:02:19;2.63;;;2.42;;
58366;SDS011;57745;42.524;12.052;2023-06-14T04:04:45;3.80;;;2.47;;
58366;SDS011;57745;42.524;12.052;2023-06-14T04:07:11;4.30;;;2.72;;
58366;SDS011;57745;42.524;12.052;2023-06-14T04:09:40;5.45;;;3.05;;
58366;SDS011;57745;42.524;12.052;2023-06-14T04:12:06;3.90;;;2.42;;
58366;SDS011;57745;42.524;12.052;2023-06-14T04:14:34;2.97;;;2.13;;
58366;SDS011;57745;42.524;12.052;2023-06-14T04:17:00;4.25;;;2.58;;
58366;SDS011;57745;42.524;12.052;2023-06-14T04:19:25;4.03;;;2.70;;
58366;SDS011;57745;42.524;12.052;2023-06-14T04:21:51;3.25;;;2.70;;
58366;SDS011;57745;42.524;12.052;2023-06-14T04:24:17;3.65;;;2.58;;
58366;SDS011;57745;42.524;12.052;2023-06-14T04:26:43;6.70;;;2.78;;
58366;SDS011;57745;42.524;12.052;2023-06-14T04:29:12;4.32;;;2.92;;
58366;SDS011;57745;42.524;12.052;2023-06-14T04:31:42;3.78;;;3.00;;
58366;SDS011;57745;42.524;12.052;2023-06-14T04:34:09;5.72;;;3.28;;
58366;SDS011;57745;42.524;12.052;2023-06-14T04:36:41;5.75;;;3.10;;
58366;SDS011;57745;42.524;12.052;2023-06-14T04:39:16;4.40;;;3.42;;
58366;SDS011;57745;42.524;12.052;2023-06-14T04:41:45;4.63;;;3.10;;
58366;SDS011;57745;42.524;12.052;2023-06-14T04:44:11;4.22;;;3.72;;
58366;SDS011;57745;42.524;12.052;2023-06-14T04:46:38;4.90;;;2.95;;
58366;SDS011;57745;42.524;12.052;2023-06-14T04:51:39;6.55;;;3.22;;
58366;SDS011;57745;42.524;12.052;2023-06-14T04:54:05;3.63;;;3.03;;
58366;SDS011;57745;42.524;12.052;2023-06-14T04:56:35;6.00;;;3.30;;
58366;SDS011;57745;42.524;12.052;2023-06-14T04:59:02;5.78;;;2.90;;
58366;SDS011;57745;42.524;12.052;2023-06-14T05:01:34;4.25;;;3.03;;
58366;SDS011;57745;42.524;12.052;2023-06-14T05:03:59;6.13;;;3.00;;
58366;SDS011;57745;42.524;12.052;2023-06-14T05:06:25;5.00;;;3.13;;
58366;SDS011;57745;42.524;12.052;2023-06-14T05:08:53;3.53;;;2.97;;
58366;SDS011;57745;42.524;12.052;2023-06-14T05:11:19;3.70;;;2.60;;
58366;SDS011;57745;42.524;12.052;2023-06-14T05:13:45;3.10;;;2.70;;
58366;SDS011;57745;42.524;12.052;2023-06-14T05:16:11;4.55;;;3.00;;
58366;SDS011;57745;42.524;12.052;2023-06-14T05:18:37;3.60;;;2.70;;
58366;SDS011;57745;42.524;12.052;2023-06-14T05:21:03;3.75;;;3.15;;
58366;SDS011;57745;42.524;12.052;2023-06-14T05:23:30;3.40;;;2.90;;
58366;SDS011;57745;42.524;12.052;2023-06-14T05:25:55;3.47;;;2.50;;
58366;SDS011;57745;42.524;12.052;2023-06-14T05:28:22;3.88;;;2.80;;
58366;SDS011;57745;42.524;12.052;2023-06-14T05:30:47;3.92;;;2.95;;
58366;SDS011;57745;42.524;12.052;2023-06-14T05:33:13;4.53;;;3.08;;
58366;SDS011;57745;42.524;12.052;2023-06-14T05:35:38;3.38;;;3.08;;
58366;SDS011;57745;42.524;12.052;2023-06-14T05:38:04;4.47;;;3.35;;
58366;SDS011;57745;42.524;12.052;2023-06-14T05:40:29;3.53;;;3.00;;
58366;SDS011;57745;42.524;12.052;2023-06-14T05:42:55;7.82;;;3.45;;
58366;SDS011;57745;42.524;12.052;2023-06-14T05:45:20;5.80;;;3.58;;
58366;SDS011;57745;42.524;12.052;2023-06-14T05:47:46;5.78;;;2.97;;
58366;SDS011;57745;42.524;12.052;2023-06-14T05:50:11;6.00;;;3.33;;
58366;SDS011;57745;42.524;12.052;2023-06-14T05:52:36;5.18;;;4.60;;
58366;SDS011;57745;42.524;12.052;2023-06-14T05:55:02;8.73;;;4.63;;
58366;SDS011;57745;42.524;12.052;2023-06-14T05:57:28;7.63;;;4.15;;
58366;SDS011;57745;42.524;12.052;2023-06-14T05:59:54;5.25;;;3.90;;
58366;SDS011;57745;42.524;12.052;2023-06-14T06:02:20;5.35;;;3.60;;
58366;SDS011;57745;42.524;12.052;2023-06-14T06:04:45;6.10;;;3.88;;
58366;SDS011;57745;42.524;12.052;2023-06-14T06:07:11;4.80;;;3.70;;
58366;SDS011;57745;42.524;12.052;2023-06-14T06:09:36;5.47;;;4.22;;
58366;SDS011;57745;42.524;12.052;2023-06-14T06:12:02;5.78;;;4.10;;
58366;SDS011;57745;42.524;12.052;2023-06-14T06:14:27;5.85;;;4.50;;
58366;SDS011;57745;42.524;12.052;2023-06-14T06:16:53;6.82;;;4.35;;
58366;SDS011;57745;42.524;12.052;2023-06-14T06:19:19;7.35;;;4.85;;
58366;SDS011;57745;42.524;12.052;2023-06-14T06:21:45;11.00;;;5.28;;
58366;SDS011;57745;42.524;12.052;2023-06-14T06:24:11;6.65;;;4.70;;
58366;SDS011;57745;42.524;12.052;2023-06-14T06:26:36;7.28;;;5.53;;
58366;SDS011;57745;42.524;12.052;2023-06-14T06:29:02;7.55;;;5.38;;
58366;SDS011;57745;42.524;12.052;2023-06-14T06:31:27;9.13;;;5.53;;
58366;SDS011;57745;42.524;12.052;2023-06-14T06:33:53;8.55;;;5.05;;
58366;SDS011;57745;42.524;12.052;2023-06-14T06:36:19;7.22;;;5.38;;
58366;SDS011;57745;42.524;12.052;2023-06-14T06:38:46;9.75;;;5.75;;
58366;SDS011;57745;42.524;12.052;2023-06-14T06:41:12;8.70;;;5.28;;
58366;SDS011;57745;42.524;12.052;2023-06-14T06:43:37;9.32;;;5.75;;
58366;SDS011;57745;42.524;12.052;2023-06-14T06:46:03;7.43;;;4.68;;
58366;SDS011;57745;42.524;12.052;2023-06-14T06:48:28;6.53;;;4.88;;
58366;SDS011;57745;42.524;12.052;2023-06-14T06:50:54;8.52;;;5.20;;
58366;SDS011;57745;42.524;12.052;2023-06-14T06:53:19;7.45;;;4.97;;
58366;SDS011;57745;42.524;12.052;2023-06-14T06:55:45;6.90;;;5.05;;
58366;SDS011;57745;42.524;12.052;2023-06-14T06:58:11;10.48;;;5.05;;
58366;SDS011;57745;42.524;12.052;2023-06-14T07:00:37;8.02;;;5.10;;
58366;SDS011;57745;42.524;12.052;2023-06-14T07:03:02;11.32;;;5.35;;
58366;SDS011;57745;42.524;12.052;2023-06-14T07:05:29;6.57;;;4.15;;
58366;SDS011;57745;42.524;12.052;2023-06-14T07:07:55;7.80;;;3.95;;
58366;SDS011;57745;42.524;12.052;2023-06-14T07:10:21;5.38;;;3.67;;
58366;SDS011;57745;42.524;12.052;2023-06-14T07:12:46;6.22;;;3.72;;
58366;SDS011;57745;42.524;12.052;2023-06-14T07:15:12;6.53;;;3.95;;
58366;SDS011;57745;42.524;12.052;2023-06-14T07:17:37;5.38;;;3.70;;
58366;SDS011;57745;42.524;12.052;2023-06-14T07:20:03;7.30;;;3.78;;
58366;SDS011;57745;42.524;12.052;2023-06-14T07:22:33;4.80;;;3.25;;
58366;SDS011;57745;42.524;12.052;2023-06-14T07:24:58;4.43;;;3.38;;
58366;SDS011;57745;42.524;12.052;2023-06-14T07:27:24;7.47;;;3.28;;
58366;SDS011;57745;42.524;12.052;2023-06-14T07:29:49;3.55;;;2.67;;
58366;SDS011;57745;42.524;12.052;2023-06-14T07:32:14;5.65;;;3.13;;
58366;SDS011;57745;42.524;12.052;2023-06-14T07:34:40;4.45;;;2.90;;
58366;SDS011;57745;42.524;12.052;2023-06-14T07:37:05;3.85;;;2.55;;
58366;SDS011;57745;42.524;12.052;2023-06-14T07:39:31;5.38;;;2.92;;
58366;SDS011;57745;42.524;12.052;2023-06-14T07:41:56;5.38;;;3.22;;
58366;SDS011;57745;42.524;12.052;2023-06-14T07:44:21;3.72;;;2.40;;
58366;SDS011;57745;42.524;12.052;2023-06-14T07:46:47;4.55;;;2.13;;
58366;SDS011;57745;42.524;12.052;2023-06-14T07:49:14;3.88;;;2.50;;
58366;SDS011;57745;42.524;12.052;2023-06-14T07:51:40;5.05;;;2.70;;
58366;SDS011;57745;42.524;12.052;2023-06-14T07:54:05;4.70;;;2.90;;
58366;SDS011;57745;42.524;12.052;2023-06-14T07:56:32;4.18;;;2.92;;
58366;SDS011;57745;42.524;12.052;2023-06-14T07:58:58;5.32;;;2.42;;
58366;SDS011;57745;42.524;12.052;2023-06-14T08:01:23;4.20;;;2.90;;
58366;SDS011;57745;42.524;12.052;2023-06-14T08:03:50;3.47;;;2.40;;
58366;SDS011;57745;42.524;12.052;2023-06-14T08:06:15;3.80;;;2.75;;
58366;SDS011;57745;42.524;12.052;2023-06-14T08:08:41;2.75;;;2.28;;
58366;SDS011;57745;42.524;12.052;2023-06-14T08:11:06;4.22;;;2.25;;
58366;SDS011;57745;42.524;12.052;2023-06-14T08:13:32;4.47;;;2.63;;
58366;SDS011;57745;42.524;12.052;2023-06-14T08:15:57;4.53;;;2.75;;
58366;SDS011;57745;42.524;12.052;2023-06-14T08:18:23;6.15;;;2.70;;
58366;SDS011;57745;42.524;12.052;2023-06-14T08:20:49;3.97;;;2.60;;
58366;SDS011;57745;42.524;12.052;2023-06-14T08:23:15;6.05;;;2.72;;
58366;SDS011;57745;42.524;12.052;2023-06-14T08:25:44;5.03;;;2.53;;
58366;SDS011;57745;42.524;12.052;2023-06-14T08:28:10;5.78;;;3.10;;
58366;SDS011;57745;42.524;12.052;2023-06-14T08:30:35;3.85;;;2.70;;
58366;SDS011;57745;42.524;12.052;2023-06-14T08:33:01;3.85;;;2.80;;
58366;SDS011;57745;42.524;12.052;2023-06-14T08:35:26;3.00;;;2.67;;
58366;SDS011;57745;42.524;12.052;2023-06-14T08:37:52;5.43;;;2.80;;
58366;SDS011;57745;42.524;12.052;2023-06-14T08:40:19;5.15;;;3.22;;
58366;SDS011;57745;42.524;12.052;2023-06-14T08:42:52;7.72;;;3.15;;
58366;SDS011;57745;42.524;12.052;2023-06-14T08:45:19;4.32;;;3.28;;
58366;SDS011;57745;42.524;12.052;2023-06-14T08:47:49;3.70;;;2.85;;
58366;SDS011;57745;42.524;12.052;2023-06-14T08:50:22;4.45;;;2.83;;
58366;SDS011;57745;42.524;12.052;2023-06-14T08:52:50;3.65;;;2.78;;
58366;SDS011;57745;42.524;12.052;2023-06-14T08:55:18;4.05;;;2.75;;
58366;SDS011;57745;42.524;12.052;2023-06-14T08:57:46;3.78;;;2.80;;
58366;SDS011;57745;42.524;12.052;2023-06-14T09:00:13;5.93;;;2.80;;
58366;SDS011;57745;42.524;12.052;2023-06-14T09:02:39;3.75;;;2.50;;
58366;SDS011;57745;42.524;12.052;2023-06-14T09:05:08;3.45;;;2.42;;
58366;SDS011;57745;42.524;12.052;2023-06-14T09:07:38;5.30;;;2.78;;
58366;SDS011;57745;42.524;12.052;2023-06-14T09:10:08;4.15;;;2.45;;
58366;SDS011;57745;42.524;12.052;2023-06-14T09:12:37;5.75;;;3.47;;
58366;SDS011;57745;42.524;12.052;2023-06-14T09:15:04;3.45;;;2.80;;
58366;SDS011;57745;42.524;12.052;2023-06-14T09:17:43;4.32;;;3.00;;
58366;SDS011;57745;42.524;12.052;2023-06-14T09:20:09;4.95;;;2.95;;
58366;SDS011;57745;42.524;12.052;2023-06-14T09:22:35;5.10;;;2.72;;
58366;SDS011;57745;42.524;12.052;2023-06-14T09:25:02;3.97;;;2.53;;
58366;SDS011;57745;42.524;12.052;2023-06-14T09:27:28;4.35;;;2.60;;
58366;SDS011;57745;42.524;12.052;2023-06-14T09:29:55;4.63;;;2.50;;
58366;SDS011;57745;42.524;12.052;2023-06-14T09:32:21;4.68;;;2.72;;
58366;SDS011;57745;42.524;12.052;2023-06-14T09:34:47;5.88;;;2.42;;
58366;SDS011;57745;42.524;12.052;2023-06-14T09:37:13;6.10;;;2.30;;
58366;SDS011;57745;42.524;12.052;2023-06-14T09:39:51;5.60;;;2.38;;
58366;SDS011;57745;42.524;12.052;2023-06-14T09:42:17;4.03;;;2.25;;
58366;SDS011;57745;42.524;12.052;2023-06-14T09:44:44;2.72;;;1.98;;
58366;SDS011;57745;42.524;12.052;2023-06-14T09:47:17;3.00;;;2.15;;
58366;SDS011;57745;42.524;12.052;2023-06-14T09:49:42;3.58;;;2.28;;
58366;SDS011;57745;42.524;12.052;2023-06-14T09:52:12;7.00;;;2.67;;
58366;SDS011;57745;42.524;12.052;2023-06-14T09:54:40;4.38;;;2.20;;
58366;SDS011;57745;42.524;12.052;2023-06-14T09:57:12;3.88;;;2.40;;
58366;SDS011;57745;42.524;12.052;2023-06-14T09:59:42;3.53;;;2.10;;
58366;SDS011;57745;42.524;12.052;2023-06-14T10:04:39;4.50;;;1.92;;
58366;SDS011;57745;42.524;12.052;2023-06-14T10:07:12;3.17;;;2.28;;
58366;SDS011;57745;42.524;12.052;2023-06-14T10:09:43;3.05;;;2.03;;
58366;SDS011;57745;42.524;12.052;2023-06-14T10:12:13;3.30;;;2.05;;
58366;SDS011;57745;42.524;12.052;2023-06-14T10:14:45;4.00;;;2.35;;
58366;SDS011;57745;42.524;12.052;2023-06-14T10:17:17;6.13;;;2.20;;
58366;SDS011;57745;42.524;12.052;2023-06-14T10:23:08;4.03;;;2.28;;
58366;SDS011;57745;42.524;12.052;2023-06-14T10:25:38;3.22;;;2.15;;
58366;SDS011;57745;42.524;12.052;2023-06-14T10:28:19;2.70;;;1.77;;
58366;SDS011;57745;42.524;12.052;2023-06-14T10:31:06;7.72;;;2.17;;
58366;SDS011;57745;42.524;12.052;2023-06-14T10:33:36;6.80;;;2.20;;
58366;SDS011;57745;42.524;12.052;2023-06-14T10:36:24;3.78;;;2.13;;
58366;SDS011;57745;42.524;12.052;2023-06-14T10:39:15;3.63;;;2.13;;
58366;SDS011;57745;42.524;12.052;2023-06-14T10:41:49;2.78;;;2.08;;
58366;SDS011;57745;42.524;12.052;2023-06-14T10:49:20;3.35;;;1.83;;
58366;SDS011;57745;42.524;12.052;2023-06-14T10:55:02;5.70;;;2.23;;
58366;SDS011;57745;42.524;12.052;2023-06-14T10:57:32;3.05;;;1.65;;
58366;SDS011;57745;42.524;12.052;2023-06-14T11:00:02;2.65;;;1.98;;
58366;SDS011;57745;42.524;12.052;2023-06-14T11:05:30;3.88;;;1.90;;
58366;SDS011;57745;42.524;12.052;2023-06-14T11:10:50;3.83;;;2.03;;
58366;SDS011;57745;42.524;12.052;2023-06-14T11:13:19;5.07;;;2.17;;
58366;SDS011;57745;42.524;12.052;2023-06-14T11:15:45;2.55;;;2.15;;
58366;SDS011;57745;42.524;12.052;2023-06-14T11:18:14;2.53;;;2.30;;
58366;SDS011;57745;42.524;12.052;2023-06-14T11:20:41;2.90;;;1.83;;
58366;SDS011;57745;42.524;12.052;2023-06-14T11:23:07;2.67;;;2.28;;
58366;SDS011;57745;42.524;12.052;2023-06-14T11:25:32;3.40;;;2.33;;
58366;SDS011;57745;42.524;12.052;2023-06-14T11:27:58;4.18;;;1.90;;
58366;SDS011;57745;42.524;12.052;2023-06-14T11:30:26;4.10;;;2.25;;
58366;SDS011;57745;42.524;12.052;2023-06-14T11:32:52;3.17;;;2.10;;
58366;SDS011;57745;42.524;12.052;2023-06-14T11:35:19;3.08;;;2.15;;
58366;SDS011;57745;42.524;12.052;2023-06-14T11:37:54;5.65;;;2.75;;
58366;SDS011;57745;42.524;12.052;2023-06-14T11:40:23;2.97;;;2.17;;
58366;SDS011;57745;42.524;12.052;2023-06-14T11:42:49;4.25;;;2.28;;
58366;SDS011;57745;42.524;12.052;2023-06-14T11:45:14;3.25;;;2.20;;
58366;SDS011;57745;42.524;12.052;2023-06-14T11:47:40;5.25;;;2.20;;
58366;SDS011;57745;42.524;12.052;2023-06-14T11:50:06;4.75;;;2.17;;
58366;SDS011;57745;42.524;12.052;2023-06-14T11:52:33;4.85;;;2.15;;
58366;SDS011;57745;42.524;12.052;2023-06-14T11:55:02;3.10;;;2.10;;
58366;SDS011;57745;42.524;12.052;2023-06-14T11:57:34;5.75;;;3.30;;
58366;SDS011;57745;42.524;12.052;2023-06-14T12:00:04;3.22;;;2.67;;
58366;SDS011;57745;42.524;12.052;2023-06-14T12:02:37;5.18;;;2.67;;
58366;SDS011;57745;42.524;12.052;2023-06-14T12:05:06;4.00;;;3.03;;
58366;SDS011;57745;42.524;12.052;2023-06-14T12:07:38;4.03;;;2.63;;
58366;SDS011;57745;42.524;12.052;2023-06-14T12:10:05;3.33;;;2.28;;
58366;SDS011;57745;42.524;12.052;2023-06-14T12:12:37;3.53;;;2.40;;
58366;SDS011;57745;42.524;12.052;2023-06-14T12:15:04;4.82;;;2.10;;
58366;SDS011;57745;42.524;12.052;2023-06-14T12:17:32;3.70;;;2.22;;
58366;SDS011;57745;42.524;12.052;2023-06-14T12:19:58;3.15;;;2.33;;
58366;SDS011;57745;42.524;12.052;2023-06-14T12:22:24;4.07;;;1.92;;
58366;SDS011;57745;42.524;12.052;2023-06-14T12:24:49;3.78;;;1.90;;
58366;SDS011;57745;42.524;12.052;2023-06-14T12:27:15;2.60;;;1.45;;
58366;SDS011;57745;42.524;12.052;2023-06-14T12:29:43;3.05;;;1.73;;
58366;SDS011;57745;42.524;12.052;2023-06-14T12:32:09;4.03;;;1.77;;
58366;SDS011;57745;42.524;12.052;2023-06-14T12:34:35;5.80;;;2.40;;
58366;SDS011;57745;42.524;12.052;2023-06-14T12:37:01;8.93;;;3.42;;
58366;SDS011;57745;42.524;12.052;2023-06-14T12:39:29;12.25;;;6.25;;
58366;SDS011;57745;42.524;12.052;2023-06-14T12:41:56;6.68;;;3.30;;
58366;SDS011;57745;42.524;12.052;2023-06-14T12:44:22;4.38;;;2.92;;
58366;SDS011;57745;42.524;12.052;2023-06-14T12:46:47;3.75;;;2.65;;
58366;SDS011;57745;42.524;12.052;2023-06-14T12:49:13;10.52;;;6.13;;
58366;SDS011;57745;42.524;12.052;2023-06-14T12:51:38;11.32;;;6.68;;
58366;SDS011;57745;42.524;12.052;2023-06-14T12:54:05;11.98;;;6.45;;
58366;SDS011;57745;42.524;12.052;2023-06-14T12:56:31;11.02;;;6.72;;
58366;SDS011;57745;42.524;12.052;2023-06-14T12:58:56;11.50;;;6.97;;
58366;SDS011;57745;42.524;12.052;2023-06-14T13:01:22;16.45;;;9.52;;
58366;SDS011;57745;42.524;12.052;2023-06-14T13:03:47;19.25;;;10.85;;
58366;SDS011;57745;42.524;12.052;2023-06-14T13:06:13;16.92;;;9.27;;
58366;SDS011;57745;42.524;12.052;2023-06-14T13:08:39;20.85;;;11.55;;
58366;SDS011;57745;42.524;12.052;2023-06-14T13:11:04;17.67;;;10.35;;
58366;SDS011;57745;42.524;12.052;2023-06-14T13:13:30;12.07;;;7.97;;
58366;SDS011;57745;42.524;12.052;2023-06-14T13:15:55;10.10;;;6.20;;
58366;SDS011;57745;42.524;12.052;2023-06-14T13:18:21;6.30;;;3.90;;
58366;SDS011;57745;42.524;12.052;2023-06-14T13:20:46;4.78;;;2.72;;
58366;SDS011;57745;42.524;12.052;2023-06-14T13:23:12;4.78;;;2.47;;
58366;SDS011;57745;42.524;12.052;2023-06-14T13:25:38;4.45;;;2.47;;
58366;SDS011;57745;42.524;12.052;2023-06-14T13:28:04;3.95;;;2.40;;
58366;SDS011;57745;42.524;12.052;2023-06-14T13:30:30;2.78;;;2.00;;
58366;SDS011;57745;42.524;12.052;2023-06-14T13:32:57;6.95;;;3.22;;
58366;SDS011;57745;42.524;12.052;2023-06-14T13:35:23;5.13;;;3.78;;
58366;SDS011;57745;42.524;12.052;2023-06-14T13:37:49;6.75;;;2.63;;
58366;SDS011;57745;42.524;12.052;2023-06-14T13:40:15;3.55;;;2.25;;
58366;SDS011;57745;42.524;12.052;2023-06-14T13:42:41;3.22;;;2.10;;
58366;SDS011;57745;42.524;12.052;2023-06-14T13:45:06;2.63;;;1.70;;
58366;SDS011;57745;42.524;12.052;2023-06-14T13:47:33;2.83;;;1.52;;
58366;SDS011;57745;42.524;12.052;2023-06-14T13:49:58;3.03;;;1.60;;
58366;SDS011;57745;42.524;12.052;2023-06-14T13:52:24;2.50;;;1.90;;
58366;SDS011;57745;42.524;12.052;2023-06-14T13:54:50;3.30;;;1.55;;
58366;SDS011;57745;42.524;12.052;2023-06-14T13:57:16;2.40;;;1.58;;
58366;SDS011;57745;42.524;12.052;2023-06-14T13:59:42;2.38;;;1.45;;
58366;SDS011;57745;42.524;12.052;2023-06-14T14:02:09;3.92;;;1.80;;
58366;SDS011;57745;42.524;12.052;2023-06-14T14:04:35;2.65;;;1.67;;
58366;SDS011;57745;42.524;12.052;2023-06-14T14:07:01;2.17;;;1.40;;
58366;SDS011;57745;42.524;12.052;2023-06-14T14:09:28;2.20;;;1.40;;
58366;SDS011;57745;42.524;12.052;2023-06-14T14:11:53;2.75;;;1.90;;
58366;SDS011;57745;42.524;12.052;2023-06-14T14:14:19;1.77;;;1.58;;
58366;SDS011;57745;42.524;12.052;2023-06-14T14:16:44;1.73;;;1.35;;
58366;SDS011;57745;42.524;12.052;2023-06-14T14:19:09;2.22;;;1.35;;
58366;SDS011;57745;42.524;12.052;2023-06-14T14:21:35;2.10;;;1.40;;
58366;SDS011;57745;42.524;12.052;2023-06-14T14:24:01;2.17;;;1.30;;
58366;SDS011;57745;42.524;12.052;2023-06-14T14:26:27;2.60;;;1.50;;
58366;SDS011;57745;42.524;12.052;2023-06-14T14:28:53;3.65;;;1.65;;
58366;SDS011;57745;42.524;12.052;2023-06-14T14:31:18;2.60;;;1.75;;
58366;SDS011;57745;42.524;12.052;2023-06-14T14:33:44;2.25;;;1.83;;
58366;SDS011;57745;42.524;12.052;2023-06-14T14:36:09;2.50;;;1.77;;
58366;SDS011;57745;42.524;12.052;2023-06-14T14:38:35;3.33;;;1.70;;
58366;SDS011;57745;42.524;12.052;2023-06-14T14:41:00;3.65;;;1.58;;
58366;SDS011;57745;42.524;12.052;2023-06-14T14:43:25;2.67;;;1.42;;
58366;SDS011;57745;42.524;12.052;2023-06-14T14:45:51;1.88;;;1.25;;
58366;SDS011;57745;42.524;12.052;2023-06-14T14:48:17;1.80;;;0.90;;
58366;SDS011;57745;42.524;12.052;2023-06-14T14:50:43;2.25;;;1.10;;
58366;SDS011;57745;42.524;12.052;2023-06-14T14:53:09;2.92;;;1.08;;